< < Back
Terminal Aerodrome Forecast


Current Version              Previous Versions:   1  2  3  4  5  6  7  8  9  

Terminal Aerodrome Forecast

224
FTUS44 KBMX 260520
TAFANB
TAF
KANB 260520Z 2606/2706 VRB03KT P6SM FEW080 OVC250
     FM261500 07005KT P6SM SCT050
     FM261900 VRB05KT P6SM VCTS BKN050CB
     FM270000 VRB04KT P6SM BKN150 OVC250=

Latest METAR

699
SAUS70 KWBC 261300 RRB
MTRANB
METAR KANB 261253Z AUTO 07004KT 10SM CLR 26/20 A3015 RMK AO2 SLP200
T02610200


USA.gov is the U.S. government's official web portal to all federal, state and local government web resources and services.